Latest Weather Observations for Melbourne

IDV60901

Issued at 10:15 pm EST Saturday 30 August 2014 (issued every 10 minutes, with the page automatically refreshed every 10 minutes)

About weather observations | Map of Melbourne area stations | Latest observations for Melbourne area | Other Formats
Station Details ID: 086071 Name: MELBOURNE REGIONAL OFFICE Lat: -37.81 Lon: 144.97 Height: 31.15 m
Data from the previous 72 hours. | See also: Recent months at Melbourne

* Apparent temperature (App Temp) for Melbourne is calculated using temperature observations collected at Melbourne and wind observations collected at Melbourne (Olympic Park), as wind observations are not currently provided for Melbourne.

Date/Time
EST
Tmp

°C
App
Tmp
°C
Dew
Point
°C
Rel
Hum
%
Delta-T

°C
Wind Press
QNH
hPa
Press
MSL
hPa
Rain
since
9 am
mm
Dir
 
Spd
km/h
Gust
km/h
Spd
kts
Gust
kts
30/10:00pm 14.7 12.9 8.1 64 3.3 N 7 - 4 - 1021.7 - 0.0
30/09:30pm 15.2 13.4 8.0 62 3.6 N 7 - 4 - 1021.8 - 0.0
30/09:00pm 15.4 13.4 8.5 63 3.5 N 9 - 5 - 1021.8 1021.9 0.0
30/08:30pm 16.2 14.4 8.1 58 4.1 N 7 - 4 - 1021.7 - 0.0
30/08:00pm 17.0 14.9 8.1 55 4.5 N 9 - 5 - 1021.5 - 0.0
30/07:30pm 17.6 16.3 7.7 52 5.0 N 4 - 2 - 1021.4 - 0.0
30/07:00pm 18.0 15.8 8.0 52 5.1 NNE 9 - 5 - 1021.2 - 0.0
30/06:30pm 18.5 16.3 7.9 50 5.4 NNE 9 - 5 - 1021.4 - 0.0
30/06:00pm 18.9 16.2 7.2 46 5.9 N 11 - 6 - 1021.4 1021.5 0.0
30/05:30pm 19.4 15.8 6.6 43 6.4 N 15 - 8 - 1021.3 - 0.0
30/05:00pm 20.2 16.8 5.9 39 7.1 N 13 - 7 - 1021.3 - 0.0
30/04:30pm 20.5 16.6 6.9 41 6.9 N 17 - 9 - 1021.3 - 0.0
30/04:00pm 20.5 17.0 7.1 42 6.8 N 15 - 8 - 1021.2 - 0.0
30/03:30pm 20.9 17.4 7.2 41 7.0 N 15 - 8 - 1021.3 - 0.0
30/03:00pm 20.5 16.6 7.1 42 6.8 N 17 - 9 - 1021.5 1021.5 0.0
30/02:30pm 21.0 17.0 6.8 39 7.2 N 17 - 9 - 1021.7 - 0.0
30/02:00pm 20.1 16.1 6.5 41 6.8 NNE 17 - 9 - 1022.1 - 0.0
30/01:30pm 20.6 16.1 7.0 41 6.9 N 20 - 11 - 1022.3 - 0.0
30/01:00pm 20.0 15.2 5.8 39 7.0 NNW 20 - 11 - 1023.0 - 0.0
30/12:30pm 19.9 15.2 6.0 40 6.9 N 20 - 11 - 1023.3 - 0.0
30/12:00pm 19.2 15.1 6.0 42 6.5 N 17 - 9 - 1023.7 1023.8 0.0
30/11:30am 18.2 16.1 8.2 52 5.1 NNE 9 - 5 - 1024.3 - 0.0
30/11:00am 16.3 14.2 8.2 58 4.1 NE 9 - 5 - 1024.7 - 0.0
30/10:30am 15.3 13.9 8.8 65 3.3 NNE 6 - 3 - 1025.3 - 0.0
30/10:00am 13.7 12.3 8.7 72 2.5 E 6 - 3 - 1025.8 - 0.0
30/09:30am 12.7 11.7 8.7 76 2.0 E 4 - 2 - 1026.0 - 0.0
30/09:00am 12.1 10.5 8.7 80 1.7 E 7 - 4 - 1026.2 1026.3 0.0
30/08:30am 12.0 10.6 8.8 81 1.6 NE 6 - 3 - 1026.3 - 0.0
30/08:00am 11.4 9.0 8.5 82 1.4 NNE 11 - 6 - 1026.3 - 0.0
30/07:30am 11.4 9.4 8.8 84 1.3 NNE 9 - 5 - 1026.1 - 0.0
30/07:00am 11.3 9.9 8.9 85 1.2 N 6 - 3 - 1025.9 - 0.0
30/06:30am 11.4 9.8 8.8 84 1.3 N 7 - 4 - 1025.7 - 0.0
30/06:00am 11.6 9.4 9.2 85 1.2 NNE 11 - 6 - 1025.4 1025.5 0.0
30/05:30am 11.7 10.2 9.3 85 1.2 NNE 7 - 4 - 1025.5 - 0.0
30/05:00am 11.8 10.9 9.4 85 1.2 NE 4 - 2 - 1025.4 - 0.0
30/04:30am 11.8 10.6 9.4 85 1.2 NE 6 - 3 - 1025.5 - 0.0
30/04:00am 11.9 10.1 9.5 85 1.2 NNE 9 - 5 - 1025.6 - 0.0
30/03:30am 11.9 10.4 9.3 84 1.3 NNE 7 - 4 - 1025.6 - 0.0
30/03:00am 12.0 10.6 9.6 85 1.2 NE 7 - 4 - 1025.7 1025.8 0.0
30/02:30am 12.0 11.6 9.8 86 1.1 NNE 2 - 1 - 1026.0 - 0.0
30/02:00am 12.0 12.1 10.0 87 1.0 CALM 0 - 0 - 1026.2 - 0.0
30/01:30am 12.0 12.1 10.0 87 1.0 CALM 0 - 0 - 1026.5 - 0.0
30/01:00am 12.0 12.1 10.0 87 1.0 CALM 0 - 0 - 1026.7 - 0.0
30/12:30am 12.0 11.7 10.0 87 1.0 S 2 - 1 - 1026.9 - 0.0
30/12:00am 12.0 11.7 10.0 87 1.0 SE 2 - 1 - 1027.1 1027.2 0.0
 
Date/Time
EST
Tmp

°C
App
Tmp
°C
Dew
Point
°C
Rel
Hum
%
Delta-T

°C
Wind Press
QNH
hPa
Press
MSL
hPa
Rain
since
9 am
mm
Dir
 
Spd
km/h
Gust
km/h
Spd
kts
Gust
kts
29/11:30pm 12.0 11.7 10.0 87 1.0 S 2 - 1 - 1027.4 - 0.0
29/11:00pm 12.1 10.8 9.9 86 1.1 SSE 7 - 4 - 1027.4 - 0.0
29/10:30pm 12.3 12.3 9.7 84 1.3 CALM 0 - 0 - 1027.5 - 0.0
29/10:00pm 12.2 12.1 9.6 84 1.3 CALM 0 - 0 - 1027.7 - 0.0
29/09:30pm 12.6 12.2 9.6 82 1.5 S 2 - 1 - 1027.8 - 0.0
29/09:00pm 12.6 12.5 9.6 82 1.5 CALM 0 - 0 - 1027.8 1027.9 0.0
29/08:30pm 12.7 12.6 9.5 81 1.6 CALM 0 - 0 - 1027.9 - 0.0
29/08:00pm 12.7 12.7 9.7 82 1.5 CALM 0 - 0 - 1027.8 - 0.0
29/07:30pm 12.7 11.8 9.1 79 1.8 SSW 4 - 2 - 1027.8 - 0.0
29/07:00pm 13.2 11.3 9.0 75 2.1 SSW 9 - 5 - 1027.8 - 0.0
29/06:30pm 13.5 11.9 8.9 74 2.3 SSW 7 - 4 - 1027.6 - 0.0
29/06:00pm 13.9 11.9 8.7 71 2.6 SSW 9 - 5 - 1027.5 1027.6 0.0
29/05:30pm 14.0 11.5 8.1 67 2.9 SSW 11 - 6 - 1027.4 - 0.0
29/05:00pm 14.3 12.8 8.3 67 3.0 SSW 6 - 3 - 1027.5 - 0.0
29/04:30pm 14.4 12.3 8.2 66 3.1 SSW 9 - 5 - 1027.5 - 0.0
29/04:00pm 15.0 12.8 8.0 63 3.5 SSW 9 - 5 - 1027.4 - 0.0
29/03:30pm 14.2 11.6 7.9 66 3.1 SSW 11 - 6 - 1027.5 - 0.0
29/03:00pm 14.2 11.7 8.2 67 3.0 SSW 11 - 6 - 1027.5 1027.6 0.0
29/02:30pm 14.4 11.9 8.4 67 3.0 SSW 11 - 6 - 1027.7 - 0.0
29/02:00pm 14.3 12.5 7.8 65 3.2 SSW 7 - 4 - 1027.9 - 0.0
29/01:30pm 14.0 12.1 7.7 66 3.1 SSE 7 - 4 - 1028.2 - 0.0
29/01:00pm 13.3 11.7 8.7 73 2.3 S 7 - 4 - 1028.6 - 0.0
29/12:30pm 13.2 11.6 8.6 73 2.3 S 7 - 4 - 1029.0 - 0.0
29/12:00pm 13.2 11.3 9.0 75 2.1 SSW 9 - 5 - 1029.5 1029.6 0.0
29/11:30am 12.4 10.9 9.2 81 1.6 SSW 7 - 4 - 1029.8 - 0.0
29/11:00am 12.0 10.4 8.8 81 1.6 S 7 - 4 - 1030.0 - 0.0
29/10:30am 12.2 10.6 8.8 80 1.7 S 7 - 4 - 1030.0 - 0.0
29/10:00am 12.1 11.8 8.7 80 1.7 CALM 0 - 0 - 1030.1 - 0.0
29/09:30am 11.6 11.3 8.8 83 1.4 CALM 0 - 0 - 1030.0 - 0.0
29/09:00am 11.4 11.1 8.8 84 1.3 CALM 0 - 0 - 1029.9 1030.0 0.0
29/08:30am 11.2 10.8 8.3 82 1.4 CALM 0 - 0 - 1029.7 - 0.0
29/08:00am 11.0 10.8 9.0 87 1.0 CALM 0 - 0 - 1029.5 - 0.0
29/07:30am 10.6 10.3 8.8 89 0.9 CALM 0 - 0 - 1029.4 - 0.0
29/07:00am 9.9 9.2 8.7 92 0.6 S 2 - 1 - 1029.2 - 0.0
29/06:30am 9.1 8.3 8.3 95 0.4 W 2 - 1 - 1028.7 - 0.0
29/06:00am 9.0 6.9 8.4 96 0.3 N 9 - 5 - 1028.3 1028.4 0.0
29/05:30am 9.5 7.9 8.7 95 0.4 NNW 7 - 4 - 1028.2 - 0.0
29/05:00am 9.7 8.2 9.1 96 0.3 NNE 7 - 4 - 1028.1 - 0.0
29/04:30am 10.0 8.1 9.2 95 0.4 NNE 9 - 5 - 1028.2 - 0.0
29/04:00am 10.2 8.8 9.4 95 0.4 NNE 7 - 4 - 1028.3 - 0.0
29/03:30am 10.5 10.5 9.7 95 0.4 CALM 0 - 0 - 1028.2 - 0.0
29/03:00am 10.6 10.6 9.8 95 0.4 CALM 0 - 0 - 1028.2 1028.3 0.0
29/02:30am 10.6 10.5 9.4 92 0.6 CALM 0 - 0 - 1028.3 - 0.0
29/02:00am 10.8 10.5 8.5 86 1.1 CALM 0 - 0 - 1028.3 - 0.0
29/01:30am 10.5 10.2 8.7 89 0.9 CALM 0 - 0 - 1028.4 - 0.0
29/01:00am 10.7 10.5 9.1 90 0.8 CALM 0 - 0 - 1028.4 - 0.0
29/12:30am 10.7 10.5 8.9 89 0.9 CALM 0 - 0 - 1028.3 - 0.0
29/12:00am 11.1 10.9 9.1 87 1.0 CALM 0 - 0 - 1028.4 1028.5 0.0
 
Date/Time
EST
Tmp

°C
App
Tmp
°C
Dew
Point
°C
Rel
Hum
%
Delta-T

°C
Wind Press
QNH
hPa
Press
MSL
hPa
Rain
since
9 am
mm
Dir
 
Spd
km/h
Gust
km/h
Spd
kts
Gust
kts
28/11:30pm 11.7 11.2 9.3 85 1.2 W 2 - 1 - 1028.4 - 0.0
28/11:00pm 12.2 11.7 9.4 83 1.4 W 2 - 1 - 1028.5 - 0.0
28/10:30pm 12.8 11.2 8.8 76 2.0 W 7 - 4 - 1028.6 - 0.0
28/10:00pm 13.2 11.4 7.2 67 2.9 WSW 6 - 3 - 1028.6 - 0.0
28/09:30pm 13.5 12.9 7.6 67 2.9 CALM 0 - 0 - 1028.6 - 0.0
28/09:00pm 13.7 13.2 7.8 67 2.9 CALM 0 - 0 - 1028.4 1028.6 0.0
28/08:30pm 14.1 13.4 7.1 62 3.4 CALM 0 - 0 - 1028.3 - 0.0
28/08:00pm 14.8 14.2 7.2 60 3.7 CALM 0 - 0 - 1028.0 - 0.0
28/07:30pm 15.9 14.9 5.6 50 4.9 CALM 0 - 0 - 1027.6 - 0.0
28/07:00pm 16.4 15.1 4.1 44 5.7 CALM 0 - 0 - 1027.3 - 0.0
28/06:30pm 16.6 15.4 4.7 45 5.6 CALM 0 - 0 - 1027.3 - 0.0
28/06:00pm 16.3 15.3 5.6 49 5.1 CALM 0 - 0 - 1027.1 1027.2 0.0
28/05:30pm 17.4 15.4 6.4 48 5.4 SSW 6 - 3 - 1026.8 - 0.0
28/05:00pm 17.9 15.9 6.3 46 5.7 SW 6 - 3 - 1026.6 - 0.0
28/04:30pm 18.8 16.6 6.0 43 6.3 SSW 7 - 4 - 1026.4 - 0.0
28/04:00pm 19.3 17.0 5.0 39 6.9 SW 6 - 3 - 1026.5 - 0.0
28/03:30pm 19.2 17.1 6.0 42 6.5 SSW 6 - 3 - 1026.6 - 0.0
28/03:00pm 18.0 15.3 7.5 50 5.3 SSW 11 - 6 - 1026.6 1026.7 0.0
28/02:30pm 17.6 15.4 7.9 53 4.9 SSW 9 - 5 - 1026.7 - 0.0
28/02:00pm 18.6 15.5 7.3 47 5.7 SW 13 - 7 - 1026.6 - 0.0
28/01:30pm 20.0 17.1 4.9 37 7.4 S 9 - 5 - 1026.8 - 0.0
28/01:00pm 19.4 17.1 5.5 40 6.8 S 7 - 4 - 1027.2 - 0.0
28/12:30pm 18.9 17.6 5.8 42 6.4 SW 2 - 1 - 1027.7 - 0.0
28/12:00pm 17.9 17.0 6.0 45 5.8 CALM 0 - 0 - 1028.1 1028.2 0.0
28/11:30am 15.2 14.5 7.0 58 4.0 CALM 0 - 0 - 1028.5 - 0.0
28/11:00am 14.7 13.6 7.1 60 3.7 E 2 - 1 - 1028.9 - 0.0
28/10:30am 13.3 11.4 6.8 64 3.1 ESE 6 - 3 - 1029.2 - 0.0
28/10:00am 11.1 10.0 6.9 75 2.0 N 2 - 1 - 1029.4 - 0.0
28/09:30am 8.8 6.8 6.9 88 0.9 NNE 7 - 4 - 1029.5 - 0.0
28/09:00am 8.1 5.7 6.8 91 0.6 NNE 9 - 5 - 1029.7 1029.8 0.0
28/08:30am 8.5 6.2 7.4 93 0.5 NNE 9 - 5 - 1029.6 - 0.0
28/08:00am 9.1 7.5 8.1 93 0.5 NNE 6 - 3 - 1029.6 - 0.0
28/07:30am 9.2 7.5 8.2 93 0.5 NNE 7 - 4 - 1029.4 - 0.0
28/07:00am 9.4 7.9 8.4 93 0.5 N 6 - 3 - 1029.2 - 0.0
28/06:30am 9.6 8.5 8.4 92 0.6 NNE 4 - 2 - 1029.0 - 0.0
28/06:00am 9.5 8.0 8.5 93 0.5 NE 6 - 3 - 1028.7 1028.9 0.0
28/05:30am 9.7 7.7 8.7 93 0.5 NNE 9 - 5 - 1028.5 - 0.0
28/05:00am 9.7 8.1 8.7 93 0.5 NE 7 - 4 - 1028.6 - 0.0
28/04:30am 9.8 8.2 8.6 92 0.6 NNE 7 - 4 - 1028.4 - 0.0
28/04:00am 9.9 8.9 8.9 93 0.5 NNE 4 - 2 - 1028.4 - 0.0
28/03:30am 10.0 9.4 9.0 93 0.5 ENE 2 - 1 - 1028.4 - 0.0
28/03:00am 10.2 10.0 9.0 92 0.6 CALM 0 - 0 - 1028.6 1028.7 0.0
28/02:30am 10.3 9.3 8.9 91 0.7 NW 4 - 2 - 1028.7 - 0.0
28/02:00am 10.2 10.0 9.0 92 0.6 CALM 0 - 0 - 1028.7 - 0.0
28/01:30am 10.1 9.9 8.9 92 0.6 CALM 0 - 0 - 1028.7 - 0.0
28/01:00am 10.3 10.2 9.3 93 0.5 CALM 0 - 0 - 1028.9 - 0.0
28/12:30am 10.3 10.1 9.1 92 0.6 CALM 0 - 0 - 1028.9 - 0.0
28/12:00am 10.8 9.4 9.4 91 0.7 SW 7 - 4 - 1029.0 1029.1 0.0
 
Date/Time
EST
Tmp

°C
App
Tmp
°C
Dew
Point
°C
Rel
Hum
%
Delta-T

°C
Wind Press
QNH
hPa
Press
MSL
hPa
Rain
since
9 am
mm
Dir
 
Spd
km/h
Gust
km/h
Spd
kts
Gust
kts
27/11:30pm 11.0 9.8 9.6 91 0.7 WSW 6 - 3 - 1029.0 - 0.0
27/11:00pm 11.0 11.0 9.8 92 0.6 CALM 0 - 0 - 1028.9 - 0.0
27/10:30pm 11.0 11.1 10.0 93 0.5 CALM 0 - 0 - 1028.9 - 0.0

Latest Capital City Observations: Canberra | Sydney | Melbourne | Brisbane | Adelaide | Perth | Hobart | Darwin

Other Formats:

Comma delimited format used in spreadsheet applications
http://www.bom.gov.au/fwo/IDV60901/IDV60901.94868.axf

JavaScript Object Notation format (JSON) in row-major order
http://www.bom.gov.au/fwo/IDV60901/IDV60901.94868.json